sensor_id;sensor_type;location;lat;lon;timestamp;P1;durP1;ratioP1;P2;durP2;ratioP2
4096;SDS011;2062;50.694;7.246;2024-02-21T00:01:22;13.63;;;3.97;;
4096;SDS011;2062;50.694;7.246;2024-02-21T00:03:49;12.85;;;3.95;;
4096;SDS011;2062;50.694;7.246;2024-02-21T00:06:16;12.93;;;4.35;;
4096;SDS011;2062;50.694;7.246;2024-02-21T00:08:45;10.97;;;3.37;;
4096;SDS011;2062;50.694;7.246;2024-02-21T00:11:11;12.50;;;3.40;;
4096;SDS011;2062;50.694;7.246;2024-02-21T00:13:38;14.85;;;3.67;;
4096;SDS011;2062;50.694;7.246;2024-02-21T00:16:05;12.50;;;3.75;;
4096;SDS011;2062;50.694;7.246;2024-02-21T00:18:32;16.67;;;4.05;;
4096;SDS011;2062;50.694;7.246;2024-02-21T00:20:59;12.83;;;3.67;;
4096;SDS011;2062;50.694;7.246;2024-02-21T00:23:26;12.18;;;3.90;;
4096;SDS011;2062;50.694;7.246;2024-02-21T00:25:55;10.82;;;3.78;;
4096;SDS011;2062;50.694;7.246;2024-02-21T00:28:21;14.65;;;4.35;;
4096;SDS011;2062;50.694;7.246;2024-02-21T00:30:48;12.13;;;3.55;;
4096;SDS011;2062;50.694;7.246;2024-02-21T00:33:16;12.57;;;3.80;;
4096;SDS011;2062;50.694;7.246;2024-02-21T00:35:43;13.30;;;3.95;;
4096;SDS011;2062;50.694;7.246;2024-02-21T00:38:09;12.45;;;3.88;;
4096;SDS011;2062;50.694;7.246;2024-02-21T00:40:36;13.65;;;3.50;;
4096;SDS011;2062;50.694;7.246;2024-02-21T00:43:04;12.30;;;3.90;;
4096;SDS011;2062;50.694;7.246;2024-02-21T00:45:31;14.37;;;3.83;;
4096;SDS011;2062;50.694;7.246;2024-02-21T00:47:58;15.48;;;4.60;;
4096;SDS011;2062;50.694;7.246;2024-02-21T00:50:24;12.02;;;3.70;;
4096;SDS011;2062;50.694;7.246;2024-02-21T00:52:51;14.98;;;3.92;;
4096;SDS011;2062;50.694;7.246;2024-02-21T00:55:18;14.88;;;4.32;;
4096;SDS011;2062;50.694;7.246;2024-02-21T00:57:45;10.30;;;3.27;;
4096;SDS011;2062;50.694;7.246;2024-02-21T01:00:13;14.52;;;3.95;;
4096;SDS011;2062;50.694;7.246;2024-02-21T01:02:40;12.57;;;3.70;;
4096;SDS011;2062;50.694;7.246;2024-02-21T01:05:07;10.25;;;3.50;;
4096;SDS011;2062;50.694;7.246;2024-02-21T01:07:34;10.57;;;3.60;;
4096;SDS011;2062;50.694;7.246;2024-02-21T01:10:01;12.17;;;3.77;;
4096;SDS011;2062;50.694;7.246;2024-02-21T01:12:28;14.40;;;3.70;;
4096;SDS011;2062;50.694;7.246;2024-02-21T01:14:54;12.38;;;3.72;;
4096;SDS011;2062;50.694;7.246;2024-02-21T01:17:22;12.45;;;3.92;;
4096;SDS011;2062;50.694;7.246;2024-02-21T01:19:49;10.75;;;3.42;;
4096;SDS011;2062;50.694;7.246;2024-02-21T01:22:16;11.37;;;3.40;;
4096;SDS011;2062;50.694;7.246;2024-02-21T01:24:43;13.15;;;3.78;;
4096;SDS011;2062;50.694;7.246;2024-02-21T01:27:09;14.90;;;4.18;;
4096;SDS011;2062;50.694;7.246;2024-02-21T01:29:36;13.98;;;3.40;;
4096;SDS011;2062;50.694;7.246;2024-02-21T01:32:03;11.73;;;3.40;;
4096;SDS011;2062;50.694;7.246;2024-02-21T01:34:32;16.27;;;3.17;;
4096;SDS011;2062;50.694;7.246;2024-02-21T01:36:59;10.52;;;3.20;;
4096;SDS011;2062;50.694;7.246;2024-02-21T01:39:29;13.85;;;3.20;;
4096;SDS011;2062;50.694;7.246;2024-02-21T01:41:56;12.25;;;3.50;;
4096;SDS011;2062;50.694;7.246;2024-02-21T01:44:23;10.93;;;3.80;;
4096;SDS011;2062;50.694;7.246;2024-02-21T01:46:50;14.40;;;4.13;;
4096;SDS011;2062;50.694;7.246;2024-02-21T01:49:17;12.65;;;3.65;;
4096;SDS011;2062;50.694;7.246;2024-02-21T01:51:46;14.73;;;3.63;;
4096;SDS011;2062;50.694;7.246;2024-02-21T01:54:13;13.50;;;3.70;;
4096;SDS011;2062;50.694;7.246;2024-02-21T01:56:41;13.95;;;3.40;;
4096;SDS011;2062;50.694;7.246;2024-02-21T01:59:08;14.20;;;3.20;;
4096;SDS011;2062;50.694;7.246;2024-02-21T02:01:35;13.82;;;3.05;;
4096;SDS011;2062;50.694;7.246;2024-02-21T02:04:02;19.00;;;3.90;;
4096;SDS011;2062;50.694;7.246;2024-02-21T02:06:33;13.90;;;3.53;;
4096;SDS011;2062;50.694;7.246;2024-02-21T02:09:01;11.50;;;3.38;;
4096;SDS011;2062;50.694;7.246;2024-02-21T02:11:28;12.80;;;3.47;;
4096;SDS011;2062;50.694;7.246;2024-02-21T02:13:57;12.88;;;3.85;;
4096;SDS011;2062;50.694;7.246;2024-02-21T02:16:24;16.42;;;3.22;;
4096;SDS011;2062;50.694;7.246;2024-02-21T02:18:51;7.60;;;3.05;;
4096;SDS011;2062;50.694;7.246;2024-02-21T02:21:22;12.27;;;3.05;;
4096;SDS011;2062;50.694;7.246;2024-02-21T02:23:54;11.37;;;3.37;;
4096;SDS011;2062;50.694;7.246;2024-02-21T02:26:21;12.30;;;3.47;;
4096;SDS011;2062;50.694;7.246;2024-02-21T02:28:48;10.32;;;3.20;;
4096;SDS011;2062;50.694;7.246;2024-02-21T02:31:15;12.43;;;3.08;;
4096;SDS011;2062;50.694;7.246;2024-02-21T02:33:42;12.77;;;3.63;;
4096;SDS011;2062;50.694;7.246;2024-02-21T02:36:09;9.33;;;2.93;;
4096;SDS011;2062;50.694;7.246;2024-02-21T02:38:36;10.18;;;3.15;;
4096;SDS011;2062;50.694;7.246;2024-02-21T02:41:05;13.13;;;3.15;;
4096;SDS011;2062;50.694;7.246;2024-02-21T02:43:31;13.68;;;3.40;;
4096;SDS011;2062;50.694;7.246;2024-02-21T02:45:58;10.27;;;3.25;;
4096;SDS011;2062;50.694;7.246;2024-02-21T02:48:25;13.10;;;3.53;;
4096;SDS011;2062;50.694;7.246;2024-02-21T02:50:52;9.38;;;2.70;;
4096;SDS011;2062;50.694;7.246;2024-02-21T02:53:18;14.18;;;2.97;;
4096;SDS011;2062;50.694;7.246;2024-02-21T02:55:45;11.85;;;2.83;;
4096;SDS011;2062;50.694;7.246;2024-02-21T02:58:13;9.18;;;2.88;;
4096;SDS011;2062;50.694;7.246;2024-02-21T03:00:40;9.77;;;3.07;;
4096;SDS011;2062;50.694;7.246;2024-02-21T03:03:07;9.73;;;3.10;;
4096;SDS011;2062;50.694;7.246;2024-02-21T03:05:34;14.27;;;3.53;;
4096;SDS011;2062;50.694;7.246;2024-02-21T03:08:01;11.30;;;3.53;;
4096;SDS011;2062;50.694;7.246;2024-02-21T03:10:31;12.15;;;2.65;;
4096;SDS011;2062;50.694;7.246;2024-02-21T03:12:58;10.83;;;2.97;;
4096;SDS011;2062;50.694;7.246;2024-02-21T03:15:26;12.38;;;3.15;;
4096;SDS011;2062;50.694;7.246;2024-02-21T03:17:53;10.35;;;2.80;;
4096;SDS011;2062;50.694;7.246;2024-02-21T03:20:20;11.70;;;3.40;;
4096;SDS011;2062;50.694;7.246;2024-02-21T03:22:47;13.65;;;3.33;;
4096;SDS011;2062;50.694;7.246;2024-02-21T03:25:13;13.27;;;3.20;;
4096;SDS011;2062;50.694;7.246;2024-02-21T03:27:40;11.98;;;3.33;;
4096;SDS011;2062;50.694;7.246;2024-02-21T03:30:08;12.70;;;3.17;;
4096;SDS011;2062;50.694;7.246;2024-02-21T03:32:37;13.40;;;3.22;;
4096;SDS011;2062;50.694;7.246;2024-02-21T03:35:04;11.48;;;3.00;;
4096;SDS011;2062;50.694;7.246;2024-02-21T03:37:31;10.03;;;3.30;;
4096;SDS011;2062;50.694;7.246;2024-02-21T03:39:58;12.60;;;3.00;;
4096;SDS011;2062;50.694;7.246;2024-02-21T03:42:24;12.68;;;3.20;;
4096;SDS011;2062;50.694;7.246;2024-02-21T03:44:54;14.60;;;3.55;;
4096;SDS011;2062;50.694;7.246;2024-02-21T03:47:21;12.10;;;3.08;;
4096;SDS011;2062;50.694;7.246;2024-02-21T03:49:49;12.30;;;3.17;;
4096;SDS011;2062;50.694;7.246;2024-02-21T03:52:16;14.10;;;3.40;;
4096;SDS011;2062;50.694;7.246;2024-02-21T03:54:42;15.23;;;3.10;;
4096;SDS011;2062;50.694;7.246;2024-02-21T03:57:09;9.63;;;2.60;;
4096;SDS011;2062;50.694;7.246;2024-02-21T03:59:36;13.10;;;3.42;;
4096;SDS011;2062;50.694;7.246;2024-02-21T04:02:04;13.90;;;3.20;;
4096;SDS011;2062;50.694;7.246;2024-02-21T04:04:33;11.65;;;2.55;;
4096;SDS011;2062;50.694;7.246;2024-02-21T04:07:01;12.68;;;3.20;;
4096;SDS011;2062;50.694;7.246;2024-02-21T04:09:31;13.00;;;3.03;;
4096;SDS011;2062;50.694;7.246;2024-02-21T04:11:58;11.10;;;2.90;;
4096;SDS011;2062;50.694;7.246;2024-02-21T04:14:25;9.07;;;2.60;;
4096;SDS011;2062;50.694;7.246;2024-02-21T04:16:52;10.20;;;2.60;;
4096;SDS011;2062;50.694;7.246;2024-02-21T04:19:19;10.85;;;2.90;;
4096;SDS011;2062;50.694;7.246;2024-02-21T04:21:45;14.07;;;2.97;;
4096;SDS011;2062;50.694;7.246;2024-02-21T04:24:14;12.80;;;2.67;;
4096;SDS011;2062;50.694;7.246;2024-02-21T04:26:40;12.70;;;2.90;;
4096;SDS011;2062;50.694;7.246;2024-02-21T04:29:08;10.15;;;2.42;;
4096;SDS011;2062;50.694;7.246;2024-02-21T04:31:35;10.10;;;3.13;;
4096;SDS011;2062;50.694;7.246;2024-02-21T04:34:02;10.38;;;2.97;;
4096;SDS011;2062;50.694;7.246;2024-02-21T04:36:28;10.75;;;2.63;;
4096;SDS011;2062;50.694;7.246;2024-02-21T04:38:55;11.33;;;2.80;;
4096;SDS011;2062;50.694;7.246;2024-02-21T04:41:23;13.27;;;2.50;;
4096;SDS011;2062;50.694;7.246;2024-02-21T04:43:50;10.23;;;2.85;;
4096;SDS011;2062;50.694;7.246;2024-02-21T04:46:17;11.50;;;2.60;;
4096;SDS011;2062;50.694;7.246;2024-02-21T04:48:43;11.93;;;2.80;;
4096;SDS011;2062;50.694;7.246;2024-02-21T04:51:11;10.13;;;2.63;;
4096;SDS011;2062;50.694;7.246;2024-02-21T04:53:38;11.20;;;2.78;;
4096;SDS011;2062;50.694;7.246;2024-02-21T04:56:05;8.40;;;2.40;;
4096;SDS011;2062;50.694;7.246;2024-02-21T04:58:37;8.75;;;2.47;;
4096;SDS011;2062;50.694;7.246;2024-02-21T05:01:04;6.18;;;2.35;;
4096;SDS011;2062;50.694;7.246;2024-02-21T05:03:30;9.07;;;2.47;;
4096;SDS011;2062;50.694;7.246;2024-02-21T05:05:58;10.18;;;2.60;;
4096;SDS011;2062;50.694;7.246;2024-02-21T05:08:25;11.95;;;2.83;;
4096;SDS011;2062;50.694;7.246;2024-02-21T05:10:52;11.43;;;2.60;;
4096;SDS011;2062;50.694;7.246;2024-02-21T05:13:18;11.00;;;2.80;;
4096;SDS011;2062;50.694;7.246;2024-02-21T05:15:47;8.70;;;2.57;;
4096;SDS011;2062;50.694;7.246;2024-02-21T05:18:13;7.22;;;2.40;;
4096;SDS011;2062;50.694;7.246;2024-02-21T05:20:40;10.20;;;2.83;;
4096;SDS011;2062;50.694;7.246;2024-02-21T05:23:07;8.27;;;2.55;;
4096;SDS011;2062;50.694;7.246;2024-02-21T05:25:34;7.93;;;2.20;;
4096;SDS011;2062;50.694;7.246;2024-02-21T05:28:00;9.40;;;2.27;;
4096;SDS011;2062;50.694;7.246;2024-02-21T05:30:28;9.63;;;2.55;;
4096;SDS011;2062;50.694;7.246;2024-02-21T05:32:56;9.55;;;2.63;;
4096;SDS011;2062;50.694;7.246;2024-02-21T05:35:25;7.20;;;2.72;;
4096;SDS011;2062;50.694;7.246;2024-02-21T05:37:52;8.02;;;2.55;;
4096;SDS011;2062;50.694;7.246;2024-02-21T05:40:19;9.93;;;2.70;;
4096;SDS011;2062;50.694;7.246;2024-02-21T05:42:46;9.88;;;2.70;;
4096;SDS011;2062;50.694;7.246;2024-02-21T05:45:13;10.65;;;2.80;;
4096;SDS011;2062;50.694;7.246;2024-02-21T05:47:40;9.25;;;2.50;;
4096;SDS011;2062;50.694;7.246;2024-02-21T05:50:09;15.00;;;3.05;;
4096;SDS011;2062;50.694;7.246;2024-02-21T05:52:36;9.73;;;2.63;;
4096;SDS011;2062;50.694;7.246;2024-02-21T05:55:03;10.20;;;2.53;;
4096;SDS011;2062;50.694;7.246;2024-02-21T05:57:32;10.40;;;2.55;;
4096;SDS011;2062;50.694;7.246;2024-02-21T05:59:59;9.18;;;2.70;;
4096;SDS011;2062;50.694;7.246;2024-02-21T06:02:26;10.02;;;2.35;;
4096;SDS011;2062;50.694;7.246;2024-02-21T06:04:53;9.90;;;2.50;;
4096;SDS011;2062;50.694;7.246;2024-02-21T06:07:21;8.93;;;2.25;;
4096;SDS011;2062;50.694;7.246;2024-02-21T06:09:48;10.30;;;2.70;;
4096;SDS011;2062;50.694;7.246;2024-02-21T06:12:15;9.07;;;2.30;;
4096;SDS011;2062;50.694;7.246;2024-02-21T06:14:42;9.90;;;2.28;;
4096;SDS011;2062;50.694;7.246;2024-02-21T06:17:09;9.90;;;2.70;;
4096;SDS011;2062;50.694;7.246;2024-02-21T06:19:36;9.30;;;2.70;;
4096;SDS011;2062;50.694;7.246;2024-02-21T06:22:02;9.82;;;2.60;;
4096;SDS011;2062;50.694;7.246;2024-02-21T06:24:34;12.73;;;2.58;;
4096;SDS011;2062;50.694;7.246;2024-02-21T06:27:01;9.13;;;2.58;;
4096;SDS011;2062;50.694;7.246;2024-02-21T06:29:28;7.53;;;2.40;;
4096;SDS011;2062;50.694;7.246;2024-02-21T06:31:55;8.02;;;2.45;;
4096;SDS011;2062;50.694;7.246;2024-02-21T06:34:21;10.65;;;2.30;;
4096;SDS011;2062;50.694;7.246;2024-02-21T06:36:49;10.05;;;2.50;;
4096;SDS011;2062;50.694;7.246;2024-02-21T06:39:16;8.18;;;2.38;;
4096;SDS011;2062;50.694;7.246;2024-02-21T06:41:44;7.93;;;2.47;;
4096;SDS011;2062;50.694;7.246;2024-02-21T06:44:11;9.57;;;2.15;;
4096;SDS011;2062;50.694;7.246;2024-02-21T06:46:38;9.30;;;2.78;;
4096;SDS011;2062;50.694;7.246;2024-02-21T06:49:05;7.30;;;2.38;;
4096;SDS011;2062;50.694;7.246;2024-02-21T06:51:32;9.98;;;2.50;;
4096;SDS011;2062;50.694;7.246;2024-02-21T06:53:59;10.13;;;2.33;;
4096;SDS011;2062;50.694;7.246;2024-02-21T06:56:27;9.15;;;2.13;;
4096;SDS011;2062;50.694;7.246;2024-02-21T06:58:55;6.85;;;2.42;;
4096;SDS011;2062;50.694;7.246;2024-02-21T07:01:22;9.35;;;2.08;;
4096;SDS011;2062;50.694;7.246;2024-02-21T07:03:49;7.80;;;2.38;;
4096;SDS011;2062;50.694;7.246;2024-02-21T07:06:15;11.73;;;2.53;;
4096;SDS011;2062;50.694;7.246;2024-02-21T07:08:42;12.13;;;2.50;;
4096;SDS011;2062;50.694;7.246;2024-02-21T07:11:09;11.77;;;2.50;;
4096;SDS011;2062;50.694;7.246;2024-02-21T07:13:36;9.93;;;2.13;;
4096;SDS011;2062;50.694;7.246;2024-02-21T07:16:05;9.45;;;2.35;;
4096;SDS011;2062;50.694;7.246;2024-02-21T07:18:32;9.97;;;2.40;;
4096;SDS011;2062;50.694;7.246;2024-02-21T07:20:59;10.13;;;2.35;;
4096;SDS011;2062;50.694;7.246;2024-02-21T07:23:26;7.82;;;2.53;;
4096;SDS011;2062;50.694;7.246;2024-02-21T07:25:52;9.93;;;2.47;;
4096;SDS011;2062;50.694;7.246;2024-02-21T07:28:19;9.82;;;2.60;;
4096;SDS011;2062;50.694;7.246;2024-02-21T07:30:46;10.70;;;2.50;;
4096;SDS011;2062;50.694;7.246;2024-02-21T07:33:14;11.48;;;2.20;;
4096;SDS011;2062;50.694;7.246;2024-02-21T07:35:41;8.45;;;2.95;;
4096;SDS011;2062;50.694;7.246;2024-02-21T07:38:10;13.45;;;2.65;;
4096;SDS011;2062;50.694;7.246;2024-02-21T07:40:37;11.55;;;3.00;;
4096;SDS011;2062;50.694;7.246;2024-02-21T07:43:04;8.80;;;2.47;;
4096;SDS011;2062;50.694;7.246;2024-02-21T07:45:31;12.10;;;2.92;;
4096;SDS011;2062;50.694;7.246;2024-02-21T07:47:57;18.70;;;2.97;;
4096;SDS011;2062;50.694;7.246;2024-02-21T07:50:25;12.27;;;2.63;;
4096;SDS011;2062;50.694;7.246;2024-02-21T07:52:52;11.25;;;2.97;;
4096;SDS011;2062;50.694;7.246;2024-02-21T07:55:19;10.93;;;3.03;;
4096;SDS011;2062;50.694;7.246;2024-02-21T07:57:46;12.57;;;3.22;;
4096;SDS011;2062;50.694;7.246;2024-02-21T08:00:13;9.27;;;2.75;;
4096;SDS011;2062;50.694;7.246;2024-02-21T08:02:44;11.50;;;2.95;;
4096;SDS011;2062;50.694;7.246;2024-02-21T08:05:11;8.85;;;2.58;;
4096;SDS011;2062;50.694;7.246;2024-02-21T08:07:39;11.50;;;2.97;;
4096;SDS011;2062;50.694;7.246;2024-02-21T08:10:07;6.72;;;2.28;;
4096;SDS011;2062;50.694;7.246;2024-02-21T08:12:34;7.45;;;2.63;;
4096;SDS011;2062;50.694;7.246;2024-02-21T08:15:01;11.10;;;2.70;;
4096;SDS011;2062;50.694;7.246;2024-02-21T08:17:29;13.15;;;2.65;;
4096;SDS011;2062;50.694;7.246;2024-02-21T08:19:56;12.67;;;2.50;;
4096;SDS011;2062;50.694;7.246;2024-02-21T08:22:23;9.50;;;3.17;;
4096;SDS011;2062;50.694;7.246;2024-02-21T08:24:51;11.23;;;2.80;;
4096;SDS011;2062;50.694;7.246;2024-02-21T08:27:18;10.55;;;2.80;;
4096;SDS011;2062;50.694;7.246;2024-02-21T08:29:45;10.10;;;3.03;;
4096;SDS011;2062;50.694;7.246;2024-02-21T08:32:11;8.57;;;2.90;;
4096;SDS011;2062;50.694;7.246;2024-02-21T08:34:38;14.43;;;3.40;;
4096;SDS011;2062;50.694;7.246;2024-02-21T08:37:05;12.70;;;3.15;;
4096;SDS011;2062;50.694;7.246;2024-02-21T08:39:33;10.82;;;3.33;;
4096;SDS011;2062;50.694;7.246;2024-02-21T08:42:01;10.13;;;2.90;;
4096;SDS011;2062;50.694;7.246;2024-02-21T08:44:28;10.10;;;3.07;;
4096;SDS011;2062;50.694;7.246;2024-02-21T08:46:55;13.35;;;3.03;;
4096;SDS011;2062;50.694;7.246;2024-02-21T08:49:21;10.27;;;3.17;;
4096;SDS011;2062;50.694;7.246;2024-02-21T08:51:48;10.13;;;2.67;;
4096;SDS011;2062;50.694;7.246;2024-02-21T08:54:15;9.48;;;2.97;;
4096;SDS011;2062;50.694;7.246;2024-02-21T08:56:42;9.67;;;2.80;;
4096;SDS011;2062;50.694;7.246;2024-02-21T08:59:10;17.60;;;3.55;;
4096;SDS011;2062;50.694;7.246;2024-02-21T09:01:37;11.98;;;3.20;;
4096;SDS011;2062;50.694;7.246;2024-02-21T09:04:03;12.10;;;3.10;;
4096;SDS011;2062;50.694;7.246;2024-02-21T09:06:31;10.20;;;2.92;;
4096;SDS011;2062;50.694;7.246;2024-02-21T09:08:58;11.70;;;2.83;;
4096;SDS011;2062;50.694;7.246;2024-02-21T09:11:25;12.20;;;2.85;;
4096;SDS011;2062;50.694;7.246;2024-02-21T09:13:53;10.40;;;2.50;;
4096;SDS011;2062;50.694;7.246;2024-02-21T09:16:21;12.23;;;3.10;;
4096;SDS011;2062;50.694;7.246;2024-02-21T09:18:48;11.77;;;3.33;;
4096;SDS011;2062;50.694;7.246;2024-02-21T09:21:14;10.13;;;2.60;;
4096;SDS011;2062;50.694;7.246;2024-02-21T09:23:41;8.27;;;2.50;;
4096;SDS011;2062;50.694;7.246;2024-02-21T09:26:08;11.45;;;2.90;;
4096;SDS011;2062;50.694;7.246;2024-02-21T09:28:38;12.15;;;2.60;;
4096;SDS011;2062;50.694;7.246;2024-02-21T09:31:05;12.40;;;2.90;;
4096;SDS011;2062;50.694;7.246;2024-02-21T09:33:33;14.03;;;2.93;;
4096;SDS011;2062;50.694;7.246;2024-02-21T09:36:00;10.20;;;2.60;;
4096;SDS011;2062;50.694;7.246;2024-02-21T09:38:27;11.38;;;2.85;;
4096;SDS011;2062;50.694;7.246;2024-02-21T09:40:55;7.78;;;2.63;;
4096;SDS011;2062;50.694;7.246;2024-02-21T09:43:26;8.68;;;2.90;;
4096;SDS011;2062;50.694;7.246;2024-02-21T09:45:52;9.90;;;2.73;;
4096;SDS011;2062;50.694;7.246;2024-02-21T09:48:33;11.95;;;2.78;;
4096;SDS011;2062;50.694;7.246;2024-02-21T09:51:09;10.23;;;2.55;;
4096;SDS011;2062;50.694;7.246;2024-02-21T09:53:37;9.75;;;2.47;;
4096;SDS011;2062;50.694;7.246;2024-02-21T09:56:07;7.87;;;2.30;;
4096;SDS011;2062;50.694;7.246;2024-02-21T09:58:35;10.85;;;2.63;;
4096;SDS011;2062;50.694;7.246;2024-02-21T10:01:02;11.05;;;2.83;;
4096;SDS011;2062;50.694;7.246;2024-02-21T10:03:31;9.80;;;2.85;;
4096;SDS011;2062;50.694;7.246;2024-02-21T10:06:00;7.50;;;2.38;;
4096;SDS011;2062;50.694;7.246;2024-02-21T10:08:27;11.80;;;2.60;;
4096;SDS011;2062;50.694;7.246;2024-02-21T10:10:54;12.50;;;2.90;;
4096;SDS011;2062;50.694;7.246;2024-02-21T10:13:24;10.27;;;2.65;;
4096;SDS011;2062;50.694;7.246;2024-02-21T10:16:02;10.88;;;2.58;;
4096;SDS011;2062;50.694;7.246;2024-02-21T10:18:29;11.68;;;2.53;;
4096;SDS011;2062;50.694;7.246;2024-02-21T10:21:01;9.50;;;2.73;;
4096;SDS011;2062;50.694;7.246;2024-02-21T10:23:29;11.70;;;2.80;;
4096;SDS011;2062;50.694;7.246;2024-02-21T10:26:07;12.43;;;3.30;;
4096;SDS011;2062;50.694;7.246;2024-02-21T10:28:34;9.88;;;3.13;;
4096;SDS011;2062;50.694;7.246;2024-02-21T10:31:00;11.35;;;2.75;;
4096;SDS011;2062;50.694;7.246;2024-02-21T10:33:27;10.03;;;2.50;;
4096;SDS011;2062;50.694;7.246;2024-02-21T10:36:06;11.00;;;2.72;;
4096;SDS011;2062;50.694;7.246;2024-02-21T10:38:35;11.23;;;2.53;;
4096;SDS011;2062;50.694;7.246;2024-02-21T10:41:02;10.10;;;2.35;;
4096;SDS011;2062;50.694;7.246;2024-02-21T10:43:30;6.85;;;2.20;;
4096;SDS011;2062;50.694;7.246;2024-02-21T10:46:05;8.27;;;2.40;;
4096;SDS011;2062;50.694;7.246;2024-02-21T10:48:33;9.73;;;2.83;;
4096;SDS011;2062;50.694;7.246;2024-02-21T10:51:12;7.68;;;2.38;;
4096;SDS011;2062;50.694;7.246;2024-02-21T10:53:44;7.05;;;2.58;;
4096;SDS011;2062;50.694;7.246;2024-02-21T10:56:16;8.60;;;2.35;;
4096;SDS011;2062;50.694;7.246;2024-02-21T10:58:48;9.47;;;2.57;;
4096;SDS011;2062;50.694;7.246;2024-02-21T11:01:15;7.63;;;2.40;;
4096;SDS011;2062;50.694;7.246;2024-02-21T11:03:43;8.25;;;2.30;;
4096;SDS011;2062;50.694;7.246;2024-02-21T11:06:13;8.05;;;2.10;;
4096;SDS011;2062;50.694;7.246;2024-02-21T11:08:41;10.35;;;2.60;;
4096;SDS011;2062;50.694;7.246;2024-02-21T11:11:08;8.57;;;2.27;;
4096;SDS011;2062;50.694;7.246;2024-02-21T11:13:36;9.80;;;2.28;;
4096;SDS011;2062;50.694;7.246;2024-02-21T11:16:07;7.60;;;2.30;;
4096;SDS011;2062;50.694;7.246;2024-02-21T11:18:35;7.30;;;2.33;;
4096;SDS011;2062;50.694;7.246;2024-02-21T11:21:02;9.65;;;2.45;;
4096;SDS011;2062;50.694;7.246;2024-02-21T11:23:32;10.37;;;2.27;;
4096;SDS011;2062;50.694;7.246;2024-02-21T11:26:05;12.05;;;2.30;;
4096;SDS011;2062;50.694;7.246;2024-02-21T11:28:32;9.38;;;2.58;;
4096;SDS011;2062;50.694;7.246;2024-02-21T11:31:07;11.07;;;2.20;;
4096;SDS011;2062;50.694;7.246;2024-02-21T11:33:34;9.48;;;2.30;;
4096;SDS011;2062;50.694;7.246;2024-02-21T11:36:01;10.60;;;2.30;;
4096;SDS011;2062;50.694;7.246;2024-02-21T11:38:29;7.28;;;2.10;;
4096;SDS011;2062;50.694;7.246;2024-02-21T11:40:57;9.45;;;2.35;;
4096;SDS011;2062;50.694;7.246;2024-02-21T11:43:24;9.02;;;2.30;;
4096;SDS011;2062;50.694;7.246;2024-02-21T11:45:57;10.35;;;2.17;;
4096;SDS011;2062;50.694;7.246;2024-02-21T11:48:25;10.13;;;1.90;;
4096;SDS011;2062;50.694;7.246;2024-02-21T11:50:52;7.88;;;2.08;;
4096;SDS011;2062;50.694;7.246;2024-02-21T11:53:20;6.93;;;2.13;;
4096;SDS011;2062;50.694;7.246;2024-02-21T11:55:47;8.45;;;1.98;;
4096;SDS011;2062;50.694;7.246;2024-02-21T11:58:16;6.85;;;1.80;;
4096;SDS011;2062;50.694;7.246;2024-02-21T12:00:42;6.83;;;2.00;;
4096;SDS011;2062;50.694;7.246;2024-02-21T12:03:09;10.52;;;2.30;;
4096;SDS011;2062;50.694;7.246;2024-02-21T12:05:36;7.47;;;2.10;;
4096;SDS011;2062;50.694;7.246;2024-02-21T12:08:03;7.55;;;1.83;;
4096;SDS011;2062;50.694;7.246;2024-02-21T12:10:30;10.48;;;2.13;;
4096;SDS011;2062;50.694;7.246;2024-02-21T12:13:05;6.43;;;2.00;;
4096;SDS011;2062;50.694;7.246;2024-02-21T12:15:34;7.55;;;2.53;;
4096;SDS011;2062;50.694;7.246;2024-02-21T12:18:01;9.68;;;2.35;;
4096;SDS011;2062;50.694;7.246;2024-02-21T12:20:27;9.07;;;2.33;;
4096;SDS011;2062;50.694;7.246;2024-02-21T12:22:55;7.95;;;2.38;;
4096;SDS011;2062;50.694;7.246;2024-02-21T12:25:23;7.73;;;2.10;;
4096;SDS011;2062;50.694;7.246;2024-02-21T12:27:51;10.40;;;2.53;;
4096;SDS011;2062;50.694;7.246;2024-02-21T12:30:18;8.70;;;2.20;;
4096;SDS011;2062;50.694;7.246;2024-02-21T12:32:47;7.43;;;2.40;;
4096;SDS011;2062;50.694;7.246;2024-02-21T12:35:14;8.45;;;2.75;;
4096;SDS011;2062;50.694;7.246;2024-02-21T12:37:42;8.70;;;2.30;;
4096;SDS011;2062;50.694;7.246;2024-02-21T12:40:10;11.60;;;3.00;;
4096;SDS011;2062;50.694;7.246;2024-02-21T12:42:38;8.85;;;2.50;;
4096;SDS011;2062;50.694;7.246;2024-02-21T12:45:05;8.82;;;2.45;;
4096;SDS011;2062;50.694;7.246;2024-02-21T12:47:32;7.93;;;2.35;;
4096;SDS011;2062;50.694;7.246;2024-02-21T12:50:01;9.60;;;2.53;;
4096;SDS011;2062;50.694;7.246;2024-02-21T12:52:29;8.15;;;2.50;;
4096;SDS011;2062;50.694;7.246;2024-02-21T12:54:56;9.10;;;2.60;;
4096;SDS011;2062;50.694;7.246;2024-02-21T12:57:23;9.10;;;2.65;;
4096;SDS011;2062;50.694;7.246;2024-02-21T12:59:50;10.85;;;2.70;;
4096;SDS011;2062;50.694;7.246;2024-02-21T13:02:17;7.33;;;2.63;;
4096;SDS011;2062;50.694;7.246;2024-02-21T13:04:45;9.75;;;2.42;;
4096;SDS011;2062;50.694;7.246;2024-02-21T13:07:13;7.93;;;2.50;;
4096;SDS011;2062;50.694;7.246;2024-02-21T13:09:39;7.65;;;2.40;;
4096;SDS011;2062;50.694;7.246;2024-02-21T13:12:06;5.97;;;2.38;;
4096;SDS011;2062;50.694;7.246;2024-02-21T13:14:34;8.27;;;2.30;;
4096;SDS011;2062;50.694;7.246;2024-02-21T13:17:03;9.65;;;2.30;;
4096;SDS011;2062;50.694;7.246;2024-02-21T13:19:31;6.88;;;2.55;;
4096;SDS011;2062;50.694;7.246;2024-02-21T13:21:57;9.45;;;2.20;;
4096;SDS011;2062;50.694;7.246;2024-02-21T13:24:25;10.25;;;2.50;;
4096;SDS011;2062;50.694;7.246;2024-02-21T13:26:52;8.00;;;2.40;;
4096;SDS011;2062;50.694;7.246;2024-02-21T13:29:19;7.75;;;2.58;;
4096;SDS011;2062;50.694;7.246;2024-02-21T13:31:46;7.10;;;2.10;;
4096;SDS011;2062;50.694;7.246;2024-02-21T13:34:13;7.30;;;2.20;;
4096;SDS011;2062;50.694;7.246;2024-02-21T13:36:40;8.82;;;2.13;;
4096;SDS011;2062;50.694;7.246;2024-02-21T13:39:07;5.93;;;1.90;;
4096;SDS011;2062;50.694;7.246;2024-02-21T13:41:39;7.70;;;2.10;;
4096;SDS011;2062;50.694;7.246;2024-02-21T13:44:07;9.50;;;2.45;;
4096;SDS011;2062;50.694;7.246;2024-02-21T13:46:34;9.57;;;2.17;;
4096;SDS011;2062;50.694;7.246;2024-02-21T13:49:03;8.50;;;2.10;;
4096;SDS011;2062;50.694;7.246;2024-02-21T13:51:31;8.40;;;2.03;;
4096;SDS011;2062;50.694;7.246;2024-02-21T13:53:58;7.57;;;2.00;;
4096;SDS011;2062;50.694;7.246;2024-02-21T13:56:25;6.90;;;2.00;;
4096;SDS011;2062;50.694;7.246;2024-02-21T13:58:53;10.38;;;2.38;;
4096;SDS011;2062;50.694;7.246;2024-02-21T14:01:20;9.32;;;2.42;;
4096;SDS011;2062;50.694;7.246;2024-02-21T14:03:47;11.03;;;2.00;;
4096;SDS011;2062;50.694;7.246;2024-02-21T14:06:14;9.80;;;2.20;;
4096;SDS011;2062;50.694;7.246;2024-02-21T14:08:41;8.10;;;2.33;;
4096;SDS011;2062;50.694;7.246;2024-02-21T14:11:08;8.40;;;2.10;;
4096;SDS011;2062;50.694;7.246;2024-02-21T14:13:34;9.88;;;2.15;;
4096;SDS011;2062;50.694;7.246;2024-02-21T14:16:03;9.90;;;2.23;;
4096;SDS011;2062;50.694;7.246;2024-02-21T14:18:36;11.48;;;2.20;;
4096;SDS011;2062;50.694;7.246;2024-02-21T14:21:03;9.40;;;1.98;;
4096;SDS011;2062;50.694;7.246;2024-02-21T14:23:30;8.40;;;2.33;;
4096;SDS011;2062;50.694;7.246;2024-02-21T14:25:58;9.00;;;1.95;;
4096;SDS011;2062;50.694;7.246;2024-02-21T14:28:25;7.53;;;1.87;;
4096;SDS011;2062;50.694;7.246;2024-02-21T14:30:52;6.45;;;1.92;;
4096;SDS011;2062;50.694;7.246;2024-02-21T14:33:23;6.72;;;1.95;;
4096;SDS011;2062;50.694;7.246;2024-02-21T14:35:50;7.53;;;2.13;;
4096;SDS011;2062;50.694;7.246;2024-02-21T14:38:17;7.45;;;1.92;;
4096;SDS011;2062;50.694;7.246;2024-02-21T14:40:44;6.47;;;1.70;;
4096;SDS011;2062;50.694;7.246;2024-02-21T14:43:11;7.15;;;1.73;;
4096;SDS011;2062;50.694;7.246;2024-02-21T14:45:38;7.68;;;1.90;;
4096;SDS011;2062;50.694;7.246;2024-02-21T14:48:06;9.70;;;1.60;;
4096;SDS011;2062;50.694;7.246;2024-02-21T14:50:34;7.07;;;1.70;;
4096;SDS011;2062;50.694;7.246;2024-02-21T14:53:01;10.10;;;1.57;;
4096;SDS011;2062;50.694;7.246;2024-02-21T14:55:28;7.72;;;1.90;;
4096;SDS011;2062;50.694;7.246;2024-02-21T14:57:55;8.13;;;2.00;;
4096;SDS011;2062;50.694;7.246;2024-02-21T15:00:21;6.47;;;1.70;;
4096;SDS011;2062;50.694;7.246;2024-02-21T15:02:54;6.85;;;1.60;;
4096;SDS011;2062;50.694;7.246;2024-02-21T15:05:21;5.00;;;1.57;;
4096;SDS011;2062;50.694;7.246;2024-02-21T15:07:50;6.70;;;1.70;;
4096;SDS011;2062;50.694;7.246;2024-02-21T15:10:17;9.52;;;1.80;;